sensor_id;sensor_type;location;lat;lon;timestamp;temperature;humidity
51383;DHT22;37475;43.358;1.248;2023-05-02T00:00:43;11.30;89.30
51383;DHT22;37475;43.358;1.248;2023-05-02T00:03:10;11.20;89.70
51383;DHT22;37475;43.358;1.248;2023-05-02T00:05:36;11.10;90.00
51383;DHT22;37475;43.358;1.248;2023-05-02T00:08:02;11.10;90.40
51383;DHT22;37475;43.358;1.248;2023-05-02T00:10:28;11.10;90.50
51383;DHT22;37475;43.358;1.248;2023-05-02T00:12:53;11.00;90.70
51383;DHT22;37475;43.358;1.248;2023-05-02T00:15:19;10.90;90.80
51383;DHT22;37475;43.358;1.248;2023-05-02T00:17:45;10.90;90.90
51383;DHT22;37475;43.358;1.248;2023-05-02T00:20:11;10.90;91.10
51383;DHT22;37475;43.358;1.248;2023-05-02T00:22:38;11.00;90.90
51383;DHT22;37475;43.358;1.248;2023-05-02T00:25:04;11.00;90.70
51383;DHT22;37475;43.358;1.248;2023-05-02T00:27:31;11.00;90.40
51383;DHT22;37475;43.358;1.248;2023-05-02T00:29:57;11.00;90.20
51383;DHT22;37475;43.358;1.248;2023-05-02T00:32:24;11.00;90.10
51383;DHT22;37475;43.358;1.248;2023-05-02T00:34:51;10.90;89.90
51383;DHT22;37475;43.358;1.248;2023-05-02T00:37:17;10.70;91.00
51383;DHT22;37475;43.358;1.248;2023-05-02T00:39:43;10.60;91.30
51383;DHT22;37475;43.358;1.248;2023-05-02T00:42:09;10.60;91.70
51383;DHT22;37475;43.358;1.248;2023-05-02T00:44:35;10.60;92.00
51383;DHT22;37475;43.358;1.248;2023-05-02T00:47:01;10.60;91.90
51383;DHT22;37475;43.358;1.248;2023-05-02T00:49:27;10.60;92.00
51383;DHT22;37475;43.358;1.248;2023-05-02T00:51:53;10.60;91.90
51383;DHT22;37475;43.358;1.248;2023-05-02T00:54:19;10.60;91.80
51383;DHT22;37475;43.358;1.248;2023-05-02T00:56:45;10.60;91.80
51383;DHT22;37475;43.358;1.248;2023-05-02T00:59:12;10.60;91.90
51383;DHT22;37475;43.358;1.248;2023-05-02T01:01:45;10.60;91.90
51383;DHT22;37475;43.358;1.248;2023-05-02T01:04:59;10.60;91.60
51383;DHT22;37475;43.358;1.248;2023-05-02T01:07:38;10.50;91.80
51383;DHT22;37475;43.358;1.248;2023-05-02T01:13:21;10.40;91.70
51383;DHT22;37475;43.358;1.248;2023-05-02T01:15:50;10.40;91.90
51383;DHT22;37475;43.358;1.248;2023-05-02T01:18:21;10.40;92.10
51383;DHT22;37475;43.358;1.248;2023-05-02T01:20:56;10.40;92.10
51383;DHT22;37475;43.358;1.248;2023-05-02T01:23:41;10.30;92.10
51383;DHT22;37475;43.358;1.248;2023-05-02T01:26:23;10.20;92.40
51383;DHT22;37475;43.358;1.248;2023-05-02T01:29:06;10.20;92.70
51383;DHT22;37475;43.358;1.248;2023-05-02T01:31:41;10.20;92.80
51383;DHT22;37475;43.358;1.248;2023-05-02T01:34:10;10.20;92.80
51383;DHT22;37475;43.358;1.248;2023-05-02T01:36:40;10.30;92.70
51383;DHT22;37475;43.358;1.248;2023-05-02T01:39:10;10.20;92.40
51383;DHT22;37475;43.358;1.248;2023-05-02T01:41:40;10.20;92.20
51383;DHT22;37475;43.358;1.248;2023-05-02T01:44:08;10.10;92.10
51383;DHT22;37475;43.358;1.248;2023-05-02T01:46:38;10.00;92.50
51383;DHT22;37475;43.358;1.248;2023-05-02T01:49:06;9.90;92.70
51383;DHT22;37475;43.358;1.248;2023-05-02T01:51:34;9.80;93.00
51383;DHT22;37475;43.358;1.248;2023-05-02T01:54:04;9.80;93.40
51383;DHT22;37475;43.358;1.248;2023-05-02T01:56:37;9.80;93.60
51383;DHT22;37475;43.358;1.248;2023-05-02T01:59:10;9.80;93.70
51383;DHT22;37475;43.358;1.248;2023-05-02T02:01:38;9.70;93.80
51383;DHT22;37475;43.358;1.248;2023-05-02T02:04:07;9.80;93.80
51383;DHT22;37475;43.358;1.248;2023-05-02T02:06:34;9.70;93.80
51383;DHT22;37475;43.358;1.248;2023-05-02T02:09:00;9.60;93.80
51383;DHT22;37475;43.358;1.248;2023-05-02T02:11:36;9.60;94.00
51383;DHT22;37475;43.358;1.248;2023-05-02T02:14:18;9.60;94.10
51383;DHT22;37475;43.358;1.248;2023-05-02T02:16:45;9.60;94.20
51383;DHT22;37475;43.358;1.248;2023-05-02T02:19:13;9.60;94.30
51383;DHT22;37475;43.358;1.248;2023-05-02T02:21:41;9.70;94.30
51383;DHT22;37475;43.358;1.248;2023-05-02T02:24:08;9.70;94.20
51383;DHT22;37475;43.358;1.248;2023-05-02T02:26:36;9.70;94.00
51383;DHT22;37475;43.358;1.248;2023-05-02T02:29:02;9.70;93.90
51383;DHT22;37475;43.358;1.248;2023-05-02T02:31:35;9.70;93.70
51383;DHT22;37475;43.358;1.248;2023-05-02T02:34:03;9.60;93.60
51383;DHT22;37475;43.358;1.248;2023-05-02T02:42:08;9.60;94.10
51383;DHT22;37475;43.358;1.248;2023-05-02T02:48:32;9.60;93.80
51383;DHT22;37475;43.358;1.248;2023-05-02T02:56:48;9.60;94.30
51383;DHT22;37475;43.358;1.248;2023-05-02T02:59:25;9.60;94.40
51383;DHT22;37475;43.358;1.248;2023-05-02T03:04:35;9.70;94.50
51383;DHT22;37475;43.358;1.248;2023-05-02T03:07:03;9.70;94.50
51383;DHT22;37475;43.358;1.248;2023-05-02T03:12:08;9.80;94.60
51383;DHT22;37475;43.358;1.248;2023-05-02T03:14:35;9.90;94.60
51383;DHT22;37475;43.358;1.248;2023-05-02T03:17:02;9.90;94.60
51383;DHT22;37475;43.358;1.248;2023-05-02T03:19:28;10.00;94.60
51383;DHT22;37475;43.358;1.248;2023-05-02T03:21:54;10.00;94.60
51383;DHT22;37475;43.358;1.248;2023-05-02T03:24:20;10.00;94.40
51383;DHT22;37475;43.358;1.248;2023-05-02T03:26:46;10.10;94.30
51383;DHT22;37475;43.358;1.248;2023-05-02T03:29:13;10.10;94.30
51383;DHT22;37475;43.358;1.248;2023-05-02T03:31:39;10.10;94.30
51383;DHT22;37475;43.358;1.248;2023-05-02T03:34:05;10.10;94.30
51383;DHT22;37475;43.358;1.248;2023-05-02T03:36:31;10.20;94.20
51383;DHT22;37475;43.358;1.248;2023-05-02T03:38:57;10.20;94.10
51383;DHT22;37475;43.358;1.248;2023-05-02T03:41:22;10.20;93.90
51383;DHT22;37475;43.358;1.248;2023-05-02T03:43:49;10.30;93.90
51383;DHT22;37475;43.358;1.248;2023-05-02T03:46:16;10.40;93.70
51383;DHT22;37475;43.358;1.248;2023-05-02T03:48:42;10.30;93.50
51383;DHT22;37475;43.358;1.248;2023-05-02T03:51:09;10.20;93.40
51383;DHT22;37475;43.358;1.248;2023-05-02T03:53:35;10.20;93.40
51383;DHT22;37475;43.358;1.248;2023-05-02T03:56:02;10.20;93.60
51383;DHT22;37475;43.358;1.248;2023-05-02T03:58:28;10.30;93.60
51383;DHT22;37475;43.358;1.248;2023-05-02T04:00:53;10.30;93.40
51383;DHT22;37475;43.358;1.248;2023-05-02T04:03:20;10.40;93.20
51383;DHT22;37475;43.358;1.248;2023-05-02T04:05:47;10.40;93.10
51383;DHT22;37475;43.358;1.248;2023-05-02T04:08:13;10.30;92.80
51383;DHT22;37475;43.358;1.248;2023-05-02T04:10:39;10.30;92.80
51383;DHT22;37475;43.358;1.248;2023-05-02T04:13:04;10.20;92.70
51383;DHT22;37475;43.358;1.248;2023-05-02T04:15:30;10.20;92.60
51383;DHT22;37475;43.358;1.248;2023-05-02T04:17:57;10.30;92.60
51383;DHT22;37475;43.358;1.248;2023-05-02T04:20:23;10.20;92.20
51383;DHT22;37475;43.358;1.248;2023-05-02T04:22:49;10.20;92.30
51383;DHT22;37475;43.358;1.248;2023-05-02T04:25:15;10.20;92.20
51383;DHT22;37475;43.358;1.248;2023-05-02T04:27:42;10.10;92.30
51383;DHT22;37475;43.358;1.248;2023-05-02T04:30:08;10.20;92.60
51383;DHT22;37475;43.358;1.248;2023-05-02T04:32:37;10.30;92.80
51383;DHT22;37475;43.358;1.248;2023-05-02T04:35:03;10.20;92.50
51383;DHT22;37475;43.358;1.248;2023-05-02T04:37:30;10.30;92.50
51383;DHT22;37475;43.358;1.248;2023-05-02T04:39:55;10.30;92.30
51383;DHT22;37475;43.358;1.248;2023-05-02T04:42:22;10.20;92.20
51383;DHT22;37475;43.358;1.248;2023-05-02T04:44:48;10.20;92.10
51383;DHT22;37475;43.358;1.248;2023-05-02T04:47:14;10.20;92.10
51383;DHT22;37475;43.358;1.248;2023-05-02T04:49:40;10.20;92.10
51383;DHT22;37475;43.358;1.248;2023-05-02T04:52:08;10.20;92.00
51383;DHT22;37475;43.358;1.248;2023-05-02T04:54:35;10.20;92.00
51383;DHT22;37475;43.358;1.248;2023-05-02T04:57:01;10.30;92.20
51383;DHT22;37475;43.358;1.248;2023-05-02T04:59:31;10.30;92.20
51383;DHT22;37475;43.358;1.248;2023-05-02T05:01:56;10.30;92.30
51383;DHT22;37475;43.358;1.248;2023-05-02T05:04:23;10.40;92.50
51383;DHT22;37475;43.358;1.248;2023-05-02T05:06:49;10.30;92.50
51383;DHT22;37475;43.358;1.248;2023-05-02T05:09:15;10.40;92.80
51383;DHT22;37475;43.358;1.248;2023-05-02T05:11:41;10.40;92.90
51383;DHT22;37475;43.358;1.248;2023-05-02T05:14:10;10.30;93.00
51383;DHT22;37475;43.358;1.248;2023-05-02T05:16:37;10.40;93.00
51383;DHT22;37475;43.358;1.248;2023-05-02T05:19:02;10.50;93.20
51383;DHT22;37475;43.358;1.248;2023-05-02T05:21:29;10.50;93.20
51383;DHT22;37475;43.358;1.248;2023-05-02T05:23:55;10.50;93.20
51383;DHT22;37475;43.358;1.248;2023-05-02T05:26:21;10.50;93.30
51383;DHT22;37475;43.358;1.248;2023-05-02T05:28:48;10.50;93.50
51383;DHT22;37475;43.358;1.248;2023-05-02T05:31:15;10.50;93.60
51383;DHT22;37475;43.358;1.248;2023-05-02T05:33:41;10.50;93.60
51383;DHT22;37475;43.358;1.248;2023-05-02T05:36:09;10.50;93.50
51383;DHT22;37475;43.358;1.248;2023-05-02T05:38:37;10.60;93.50
51383;DHT22;37475;43.358;1.248;2023-05-02T05:41:03;10.60;93.50
51383;DHT22;37475;43.358;1.248;2023-05-02T05:43:33;10.70;93.50
51383;DHT22;37475;43.358;1.248;2023-05-02T05:45:59;10.70;93.30
51383;DHT22;37475;43.358;1.248;2023-05-02T05:48:25;10.80;93.30
51383;DHT22;37475;43.358;1.248;2023-05-02T05:50:50;10.80;93.30
51383;DHT22;37475;43.358;1.248;2023-05-02T05:53:17;10.70;93.30
51383;DHT22;37475;43.358;1.248;2023-05-02T05:55:44;10.80;93.50
51383;DHT22;37475;43.358;1.248;2023-05-02T05:58:10;10.90;93.50
51383;DHT22;37475;43.358;1.248;2023-05-02T06:00:39;10.90;93.50
51383;DHT22;37475;43.358;1.248;2023-05-02T06:03:06;10.90;93.60
51383;DHT22;37475;43.358;1.248;2023-05-02T06:05:32;11.00;93.60
51383;DHT22;37475;43.358;1.248;2023-05-02T06:07:58;11.00;93.60
51383;DHT22;37475;43.358;1.248;2023-05-02T06:10:24;11.10;93.60
51383;DHT22;37475;43.358;1.248;2023-05-02T06:12:50;11.10;93.50
51383;DHT22;37475;43.358;1.248;2023-05-02T06:15:16;11.10;93.30
51383;DHT22;37475;43.358;1.248;2023-05-02T06:17:42;11.20;93.10
51383;DHT22;37475;43.358;1.248;2023-05-02T06:20:08;11.10;92.90
51383;DHT22;37475;43.358;1.248;2023-05-02T06:22:35;11.30;92.90
51383;DHT22;37475;43.358;1.248;2023-05-02T06:25:01;11.30;92.70
51383;DHT22;37475;43.358;1.248;2023-05-02T06:27:29;11.50;92.80
51383;DHT22;37475;43.358;1.248;2023-05-02T06:29:55;11.60;92.60
51383;DHT22;37475;43.358;1.248;2023-05-02T06:32:21;11.60;92.60
51383;DHT22;37475;43.358;1.248;2023-05-02T06:34:47;11.60;92.40
51383;DHT22;37475;43.358;1.248;2023-05-02T06:37:12;11.70;92.60
51383;DHT22;37475;43.358;1.248;2023-05-02T06:39:38;11.60;92.30
51383;DHT22;37475;43.358;1.248;2023-05-02T06:42:04;11.60;92.00
51383;DHT22;37475;43.358;1.248;2023-05-02T06:44:30;11.60;92.20
51383;DHT22;37475;43.358;1.248;2023-05-02T06:46:56;11.60;92.20
51383;DHT22;37475;43.358;1.248;2023-05-02T06:49:22;11.60;92.10
51383;DHT22;37475;43.358;1.248;2023-05-02T06:51:48;11.70;92.30
51383;DHT22;37475;43.358;1.248;2023-05-02T06:54:14;11.70;92.10
51383;DHT22;37475;43.358;1.248;2023-05-02T06:56:41;11.80;92.20
51383;DHT22;37475;43.358;1.248;2023-05-02T06:59:07;11.90;92.30
51383;DHT22;37475;43.358;1.248;2023-05-02T07:01:33;11.90;92.00
51383;DHT22;37475;43.358;1.248;2023-05-02T07:04:00;12.00;91.70
51383;DHT22;37475;43.358;1.248;2023-05-02T07:06:28;12.10;91.60
51383;DHT22;37475;43.358;1.248;2023-05-02T07:08:54;12.10;91.40
51383;DHT22;37475;43.358;1.248;2023-05-02T07:11:19;12.20;91.30
51383;DHT22;37475;43.358;1.248;2023-05-02T07:13:47;12.30;90.50
51383;DHT22;37475;43.358;1.248;2023-05-02T07:16:13;12.40;90.10
51383;DHT22;37475;43.358;1.248;2023-05-02T07:18:39;12.60;90.30
51383;DHT22;37475;43.358;1.248;2023-05-02T07:21:06;12.60;89.60
51383;DHT22;37475;43.358;1.248;2023-05-02T07:23:33;12.70;90.10
51383;DHT22;37475;43.358;1.248;2023-05-02T07:25:59;12.90;90.30
51383;DHT22;37475;43.358;1.248;2023-05-02T07:28:25;12.80;89.30
51383;DHT22;37475;43.358;1.248;2023-05-02T07:30:50;12.80;89.00
51383;DHT22;37475;43.358;1.248;2023-05-02T07:33:16;13.00;89.50
51383;DHT22;37475;43.358;1.248;2023-05-02T07:35:42;13.10;89.30
51383;DHT22;37475;43.358;1.248;2023-05-02T07:38:08;13.20;88.90
51383;DHT22;37475;43.358;1.248;2023-05-02T07:40:34;13.30;89.10
51383;DHT22;37475;43.358;1.248;2023-05-02T07:43:00;13.40;88.50
51383;DHT22;37475;43.358;1.248;2023-05-02T07:45:26;13.50;87.90
51383;DHT22;37475;43.358;1.248;2023-05-02T07:47:52;13.50;86.90
51383;DHT22;37475;43.358;1.248;2023-05-02T07:50:19;13.60;87.20
51383;DHT22;37475;43.358;1.248;2023-05-02T07:52:45;13.80;86.70
51383;DHT22;37475;43.358;1.248;2023-05-02T07:55:11;14.00;87.50
51383;DHT22;37475;43.358;1.248;2023-05-02T07:57:37;14.00;86.90
51383;DHT22;37475;43.358;1.248;2023-05-02T08:00:03;14.10;86.70
51383;DHT22;37475;43.358;1.248;2023-05-02T08:02:35;14.40;87.10
51383;DHT22;37475;43.358;1.248;2023-05-02T08:05:02;14.20;83.20
51383;DHT22;37475;43.358;1.248;2023-05-02T08:07:28;14.20;82.70
51383;DHT22;37475;43.358;1.248;2023-05-02T08:09:54;14.40;81.40
51383;DHT22;37475;43.358;1.248;2023-05-02T08:12:20;14.40;80.90
51383;DHT22;37475;43.358;1.248;2023-05-02T08:14:46;14.60;82.30
51383;DHT22;37475;43.358;1.248;2023-05-02T08:17:11;14.60;81.50
51383;DHT22;37475;43.358;1.248;2023-05-02T08:19:37;14.70;81.60
51383;DHT22;37475;43.358;1.248;2023-05-02T08:22:03;15.00;81.80
51383;DHT22;37475;43.358;1.248;2023-05-02T08:24:29;14.90;80.70
51383;DHT22;37475;43.358;1.248;2023-05-02T08:26:55;15.10;81.20
51383;DHT22;37475;43.358;1.248;2023-05-02T08:29:22;15.00;77.50
51383;DHT22;37475;43.358;1.248;2023-05-02T08:31:48;15.10;75.00
51383;DHT22;37475;43.358;1.248;2023-05-02T08:34:14;15.40;76.40
51383;DHT22;37475;43.358;1.248;2023-05-02T08:36:40;15.30;76.50
51383;DHT22;37475;43.358;1.248;2023-05-02T08:39:06;15.40;75.60
51383;DHT22;37475;43.358;1.248;2023-05-02T08:41:33;15.30;73.80
51383;DHT22;37475;43.358;1.248;2023-05-02T08:43:59;15.60;75.50
51383;DHT22;37475;43.358;1.248;2023-05-02T08:46:27;15.80;76.50
51383;DHT22;37475;43.358;1.248;2023-05-02T08:48:54;16.00;75.80
51383;DHT22;37475;43.358;1.248;2023-05-02T08:51:23;15.90;73.00
51383;DHT22;37475;43.358;1.248;2023-05-02T08:53:51;15.90;72.60
51383;DHT22;37475;43.358;1.248;2023-05-02T08:56:17;15.90;71.10
51383;DHT22;37475;43.358;1.248;2023-05-02T08:58:43;16.10;71.10
51383;DHT22;37475;43.358;1.248;2023-05-02T09:01:16;16.30;69.20
51383;DHT22;37475;43.358;1.248;2023-05-02T09:03:43;16.30;67.50
51383;DHT22;37475;43.358;1.248;2023-05-02T09:06:21;16.50;68.80
51383;DHT22;37475;43.358;1.248;2023-05-02T09:08:49;16.80;68.20
51383;DHT22;37475;43.358;1.248;2023-05-02T09:11:17;17.00;67.70
51383;DHT22;37475;43.358;1.248;2023-05-02T09:13:45;17.10;68.00
51383;DHT22;37475;43.358;1.248;2023-05-02T09:16:18;17.20;69.10
51383;DHT22;37475;43.358;1.248;2023-05-02T09:18:58;17.30;66.70
51383;DHT22;37475;43.358;1.248;2023-05-02T09:21:25;17.40;67.60
51383;DHT22;37475;43.358;1.248;2023-05-02T09:23:59;17.40;62.20
51383;DHT22;37475;43.358;1.248;2023-05-02T09:26:30;17.50;61.50
51383;DHT22;37475;43.358;1.248;2023-05-02T09:28:59;17.70;63.20
51383;DHT22;37475;43.358;1.248;2023-05-02T09:31:28;17.90;61.50
51383;DHT22;37475;43.358;1.248;2023-05-02T09:34:10;18.10;60.60
51383;DHT22;37475;43.358;1.248;2023-05-02T09:36:45;18.10;62.30
51383;DHT22;37475;43.358;1.248;2023-05-02T09:39:35;18.10;60.00
51383;DHT22;37475;43.358;1.248;2023-05-02T09:42:01;18.10;57.60
51383;DHT22;37475;43.358;1.248;2023-05-02T09:44:36;18.40;58.00
51383;DHT22;37475;43.358;1.248;2023-05-02T09:47:02;18.40;58.80
51383;DHT22;37475;43.358;1.248;2023-05-02T09:49:44;18.40;57.00
51383;DHT22;37475;43.358;1.248;2023-05-02T09:52:12;18.50;58.40
51383;DHT22;37475;43.358;1.248;2023-05-02T09:54:42;18.20;60.40
51383;DHT22;37475;43.358;1.248;2023-05-02T09:57:08;18.50;60.10
51383;DHT22;37475;43.358;1.248;2023-05-02T09:59:35;18.70;57.20
51383;DHT22;37475;43.358;1.248;2023-05-02T10:02:05;19.00;58.30
51383;DHT22;37475;43.358;1.248;2023-05-02T10:04:32;19.10;58.10
51383;DHT22;37475;43.358;1.248;2023-05-02T10:06:59;19.30;60.50
51383;DHT22;37475;43.358;1.248;2023-05-02T10:09:26;19.30;59.20
51383;DHT22;37475;43.358;1.248;2023-05-02T10:11:55;19.60;59.20
51383;DHT22;37475;43.358;1.248;2023-05-02T10:14:22;19.70;58.30
51383;DHT22;37475;43.358;1.248;2023-05-02T10:20:05;19.30;58.10
51383;DHT22;37475;43.358;1.248;2023-05-02T10:22:35;19.50;55.40
51383;DHT22;37475;43.358;1.248;2023-05-02T10:25:02;19.30;57.00
51383;DHT22;37475;43.358;1.248;2023-05-02T10:27:29;19.50;58.80
51383;DHT22;37475;43.358;1.248;2023-05-02T10:29:58;19.10;58.20
51383;DHT22;37475;43.358;1.248;2023-05-02T10:32:27;18.60;60.20
51383;DHT22;37475;43.358;1.248;2023-05-02T10:34:56;18.90;60.10
51383;DHT22;37475;43.358;1.248;2023-05-02T10:37:24;19.50;58.00
51383;DHT22;37475;43.358;1.248;2023-05-02T10:39:51;19.80;56.20
51383;DHT22;37475;43.358;1.248;2023-05-02T10:42:19;19.60;55.40
51383;DHT22;37475;43.358;1.248;2023-05-02T10:44:45;19.90;51.50
51383;DHT22;37475;43.358;1.248;2023-05-02T10:47:19;20.00;48.40
51383;DHT22;37475;43.358;1.248;2023-05-02T10:49:59;20.20;49.20
51383;DHT22;37475;43.358;1.248;2023-05-02T10:52:36;20.40;47.60
51383;DHT22;37475;43.358;1.248;2023-05-02T10:55:19;20.70;48.20
51383;DHT22;37475;43.358;1.248;2023-05-02T10:58:21;20.80;47.70
51383;DHT22;37475;43.358;1.248;2023-05-02T11:00:47;21.10;48.90
51383;DHT22;37475;43.358;1.248;2023-05-02T11:03:12;21.10;45.80
51383;DHT22;37475;43.358;1.248;2023-05-02T11:06:04;21.30;48.50
51383;DHT22;37475;43.358;1.248;2023-05-02T11:08:33;21.10;47.20
51383;DHT22;37475;43.358;1.248;2023-05-02T11:11:38;21.20;50.70
51383;DHT22;37475;43.358;1.248;2023-05-02T11:14:12;21.10;46.00
51383;DHT22;37475;43.358;1.248;2023-05-02T11:19:26;21.00;44.60
51383;DHT22;37475;43.358;1.248;2023-05-02T11:24:51;20.70;45.50
51383;DHT22;37475;43.358;1.248;2023-05-02T11:30:00;21.40;48.80
51383;DHT22;37475;43.358;1.248;2023-05-02T11:35:22;22.00;46.70
51383;DHT22;37475;43.358;1.248;2023-05-02T11:38:05;22.10;44.00
51383;DHT22;37475;43.358;1.248;2023-05-02T11:40:34;22.10;47.80
51383;DHT22;37475;43.358;1.248;2023-05-02T11:43:10;22.30;43.40
51383;DHT22;37475;43.358;1.248;2023-05-02T11:45:37;22.20;44.40
51383;DHT22;37475;43.358;1.248;2023-05-02T11:48:04;22.60;44.40
51383;DHT22;37475;43.358;1.248;2023-05-02T11:53:18;22.80;41.00
51383;DHT22;37475;43.358;1.248;2023-05-02T11:55:54;22.80;44.30
51383;DHT22;37475;43.358;1.248;2023-05-02T11:58:26;23.20;41.50
51383;DHT22;37475;43.358;1.248;2023-05-02T12:01:15;23.10;41.40
51383;DHT22;37475;43.358;1.248;2023-05-02T12:03:41;23.00;43.20
51383;DHT22;37475;43.358;1.248;2023-05-02T12:06:13;23.10;40.50
51383;DHT22;37475;43.358;1.248;2023-05-02T12:08:42;23.20;41.70
51383;DHT22;37475;43.358;1.248;2023-05-02T12:11:08;23.20;41.70
51383;DHT22;37475;43.358;1.248;2023-05-02T12:13:34;23.20;42.80
51383;DHT22;37475;43.358;1.248;2023-05-02T12:16:09;23.20;42.00
51383;DHT22;37475;43.358;1.248;2023-05-02T12:18:35;22.50;42.10
51383;DHT22;37475;43.358;1.248;2023-05-02T12:21:01;22.60;42.10
51383;DHT22;37475;43.358;1.248;2023-05-02T12:23:27;22.90;41.70
51383;DHT22;37475;43.358;1.248;2023-05-02T12:25:53;23.20;40.10
51383;DHT22;37475;43.358;1.248;2023-05-02T12:28:19;23.50;42.30
51383;DHT22;37475;43.358;1.248;2023-05-02T12:30:47;23.40;40.80
51383;DHT22;37475;43.358;1.248;2023-05-02T12:33:14;23.80;40.40
51383;DHT22;37475;43.358;1.248;2023-05-02T12:35:41;24.10;39.40
51383;DHT22;37475;43.358;1.248;2023-05-02T12:38:15;24.10;38.10
51383;DHT22;37475;43.358;1.248;2023-05-02T12:40:48;24.20;39.20
51383;DHT22;37475;43.358;1.248;2023-05-02T12:43:15;24.50;40.00
51383;DHT22;37475;43.358;1.248;2023-05-02T12:45:41;24.80;41.20
51383;DHT22;37475;43.358;1.248;2023-05-02T12:48:25;25.00;40.50
51383;DHT22;37475;43.358;1.248;2023-05-02T12:50:52;25.10;41.20
51383;DHT22;37475;43.358;1.248;2023-05-02T12:53:42;25.30;37.90
51383;DHT22;37475;43.358;1.248;2023-05-02T12:56:10;25.30;39.50
51383;DHT22;37475;43.358;1.248;2023-05-02T12:58:40;25.20;35.00
51383;DHT22;37475;43.358;1.248;2023-05-02T13:01:07;24.60;36.50
51383;DHT22;37475;43.358;1.248;2023-05-02T13:03:34;24.90;37.50
51383;DHT22;37475;43.358;1.248;2023-05-02T13:06:00;24.90;37.50
51383;DHT22;37475;43.358;1.248;2023-05-02T13:08:26;24.70;38.00
51383;DHT22;37475;43.358;1.248;2023-05-02T13:10:51;25.00;37.80
51383;DHT22;37475;43.358;1.248;2023-05-02T13:13:18;25.40;37.50
51383;DHT22;37475;43.358;1.248;2023-05-02T13:15:44;25.50;36.30
51383;DHT22;37475;43.358;1.248;2023-05-02T13:18:10;26.10;35.80
51383;DHT22;37475;43.358;1.248;2023-05-02T13:20:35;26.10;35.70
51383;DHT22;37475;43.358;1.248;2023-05-02T13:23:01;25.90;35.20
51383;DHT22;37475;43.358;1.248;2023-05-02T13:25:27;25.80;33.50
51383;DHT22;37475;43.358;1.248;2023-05-02T13:27:53;25.80;32.80
51383;DHT22;37475;43.358;1.248;2023-05-02T13:30:18;25.50;34.40
51383;DHT22;37475;43.358;1.248;2023-05-02T13:32:44;26.00;36.30
51383;DHT22;37475;43.358;1.248;2023-05-02T13:35:10;26.10;34.70
51383;DHT22;37475;43.358;1.248;2023-05-02T13:37:38;26.30;34.30
51383;DHT22;37475;43.358;1.248;2023-05-02T13:40:06;26.60;32.40
51383;DHT22;37475;43.358;1.248;2023-05-02T13:42:33;26.80;34.10
51383;DHT22;37475;43.358;1.248;2023-05-02T13:44:58;26.50;35.70
51383;DHT22;37475;43.358;1.248;2023-05-02T13:47:27;26.80;32.90
51383;DHT22;37475;43.358;1.248;2023-05-02T13:49:53;26.50;33.30
51383;DHT22;37475;43.358;1.248;2023-05-02T13:52:19;25.80;38.80
51383;DHT22;37475;43.358;1.248;2023-05-02T13:54:44;26.30;35.50
51383;DHT22;37475;43.358;1.248;2023-05-02T13:57:10;26.60;34.10
51383;DHT22;37475;43.358;1.248;2023-05-02T13:59:36;26.70;37.40
51383;DHT22;37475;43.358;1.248;2023-05-02T14:02:02;27.00;34.90
51383;DHT22;37475;43.358;1.248;2023-05-02T14:04:28;27.00;33.50
51383;DHT22;37475;43.358;1.248;2023-05-02T14:06:53;27.20;33.00
51383;DHT22;37475;43.358;1.248;2023-05-02T14:09:19;27.00;34.90
51383;DHT22;37475;43.358;1.248;2023-05-02T14:11:45;27.10;31.00
51383;DHT22;37475;43.358;1.248;2023-05-02T14:14:12;27.10;32.70
51383;DHT22;37475;43.358;1.248;2023-05-02T14:16:38;27.10;36.60
51383;DHT22;37475;43.358;1.248;2023-05-02T14:19:04;27.50;34.80
51383;DHT22;37475;43.358;1.248;2023-05-02T14:21:30;27.70;32.10
51383;DHT22;37475;43.358;1.248;2023-05-02T14:23:56;27.40;33.70
51383;DHT22;37475;43.358;1.248;2023-05-02T14:26:22;27.90;32.70
51383;DHT22;37475;43.358;1.248;2023-05-02T14:28:48;27.60;32.80
51383;DHT22;37475;43.358;1.248;2023-05-02T14:31:14;27.50;32.10
51383;DHT22;37475;43.358;1.248;2023-05-02T14:33:40;27.90;32.70
51383;DHT22;37475;43.358;1.248;2023-05-02T14:36:06;28.10;32.20
51383;DHT22;37475;43.358;1.248;2023-05-02T14:38:32;28.10;35.00
51383;DHT22;37475;43.358;1.248;2023-05-02T14:40:57;28.30;34.50
51383;DHT22;37475;43.358;1.248;2023-05-02T14:43:23;28.30;34.10
51383;DHT22;37475;43.358;1.248;2023-05-02T14:45:49;28.30;33.40
51383;DHT22;37475;43.358;1.248;2023-05-02T14:48:15;28.50;31.50
51383;DHT22;37475;43.358;1.248;2023-05-02T14:50:42;28.00;33.60
51383;DHT22;37475;43.358;1.248;2023-05-02T14:53:08;28.30;30.50
51383;DHT22;37475;43.358;1.248;2023-05-02T14:55:40;28.50;32.10
51383;DHT22;37475;43.358;1.248;2023-05-02T14:58:07;28.70;30.80
51383;DHT22;37475;43.358;1.248;2023-05-02T15:00:37;28.10;29.60
51383;DHT22;37475;43.358;1.248;2023-05-02T15:03:06;28.50;29.90
51383;DHT22;37475;43.358;1.248;2023-05-02T15:05:35;28.50;30.20
51383;DHT22;37475;43.358;1.248;2023-05-02T15:08:01;27.90;33.20
51383;DHT22;37475;43.358;1.248;2023-05-02T15:10:27;28.40;31.30
51383;DHT22;37475;43.358;1.248;2023-05-02T15:12:53;28.50;32.60
51383;DHT22;37475;43.358;1.248;2023-05-02T15:15:19;28.80;33.00
51383;DHT22;37475;43.358;1.248;2023-05-02T15:17:49;29.00;32.90
51383;DHT22;37475;43.358;1.248;2023-05-02T15:20:15;29.50;32.30
51383;DHT22;37475;43.358;1.248;2023-05-02T15:22:41;29.50;31.20
51383;DHT22;37475;43.358;1.248;2023-05-02T15:25:08;29.60;30.00
51383;DHT22;37475;43.358;1.248;2023-05-02T15:27:33;29.30;32.40
51383;DHT22;37475;43.358;1.248;2023-05-02T15:29:59;28.20;32.20
51383;DHT22;37475;43.358;1.248;2023-05-02T15:32:27;28.10;31.60
51383;DHT22;37475;43.358;1.248;2023-05-02T15:34:53;28.00;30.00
51383;DHT22;37475;43.358;1.248;2023-05-02T15:37:20;28.00;31.30
51383;DHT22;37475;43.358;1.248;2023-05-02T15:39:45;27.80;30.40
51383;DHT22;37475;43.358;1.248;2023-05-02T15:42:11;27.80;30.60
51383;DHT22;37475;43.358;1.248;2023-05-02T15:44:37;27.50;31.50
51383;DHT22;37475;43.358;1.248;2023-05-02T15:47:03;28.30;33.70
51383;DHT22;37475;43.358;1.248;2023-05-02T15:49:30;28.50;30.70
51383;DHT22;37475;43.358;1.248;2023-05-02T15:51:59;29.10;30.10
51383;DHT22;37475;43.358;1.248;2023-05-02T15:54:25;29.10;29.00
51383;DHT22;37475;43.358;1.248;2023-05-02T15:56:51;29.30;33.00
51383;DHT22;37475;43.358;1.248;2023-05-02T15:59:17;29.90;30.10
51383;DHT22;37475;43.358;1.248;2023-05-02T16:01:43;30.20;30.10
51383;DHT22;37475;43.358;1.248;2023-05-02T16:04:09;29.70;29.50
51383;DHT22;37475;43.358;1.248;2023-05-02T16:06:36;30.10;30.70
51383;DHT22;37475;43.358;1.248;2023-05-02T16:09:02;30.00;30.40
51383;DHT22;37475;43.358;1.248;2023-05-02T16:11:30;30.20;30.50
51383;DHT22;37475;43.358;1.248;2023-05-02T16:13:57;30.50;29.70
51383;DHT22;37475;43.358;1.248;2023-05-02T16:16:24;30.50;30.00
51383;DHT22;37475;43.358;1.248;2023-05-02T16:18:51;30.10;28.00